createdAt,value
2022-12-19T00:04:47.100Z,8.85
2022-12-19T00:09:55.061Z,9.68
2022-12-19T00:15:02.004Z,9.37
2022-12-19T00:20:10.971Z,7.70
2022-12-19T00:30:26.938Z,8.43
2022-12-19T00:40:43.294Z,8.57
2022-12-19T00:45:51.352Z,7.63
2022-12-19T00:51:03.883Z,8.48
2022-12-19T00:56:15.975Z,9.38
2022-12-19T01:01:25.310Z,7.82
2022-12-19T01:06:32.024Z,8.52
2022-12-19T01:11:57.406Z,8.35
2022-12-19T01:17:04.330Z,9.32
2022-12-19T01:22:11.014Z,7.93
2022-12-19T01:27:19.189Z,8.38
2022-12-19T01:32:25.697Z,9.03
2022-12-19T01:37:32.536Z,8.90
2022-12-19T01:42:41.223Z,9.55
2022-12-19T01:47:53.629Z,9.18
2022-12-19T01:53:03.161Z,8.40
2022-12-19T01:58:14.843Z,8.90
2022-12-19T02:03:27.313Z,9.48
2022-12-19T02:08:34.555Z,9.23
2022-12-19T02:13:45.799Z,9.30
2022-12-19T02:19:08.558Z,8.38
2022-12-19T02:25:07.901Z,9.23
2022-12-19T02:30:19.821Z,9.05
2022-12-19T02:35:39.036Z,8.52
2022-12-19T02:40:53.739Z,9.13
2022-12-19T02:46:05.884Z,10.63
2022-12-19T02:51:15.937Z,9.27
2022-12-19T02:56:45.675Z,10.50
2022-12-19T03:01:59.707Z,10.80
2022-12-19T03:07:19.845Z,9.23
2022-12-19T03:12:32.529Z,9.93
2022-12-19T03:17:40.409Z,10.50
2022-12-19T03:22:48.442Z,9.07
2022-12-19T03:27:56.778Z,12.20
2022-12-19T03:33:04.371Z,11.25
2022-12-19T03:38:15.744Z,10.63
2022-12-19T03:43:24.814Z,10.77
2022-12-19T03:48:41.472Z,10.95
2022-12-19T03:54:01.046Z,11.75
2022-12-19T03:59:11.866Z,12.85
2022-12-19T04:04:20.279Z,11.77
2022-12-19T04:09:28.863Z,12.00
2022-12-19T04:19:49.819Z,10.50
2022-12-19T04:25:00.951Z,10.18
2022-12-19T04:30:10.710Z,10.55
2022-12-19T04:35:18.049Z,10.32
2022-12-19T04:40:25.914Z,12.35
2022-12-19T04:45:33.188Z,9.98
2022-12-19T04:50:39.879Z,11.48
2022-12-19T04:55:48.143Z,11.73
2022-12-19T05:00:54.942Z,9.60
2022-12-19T05:06:10.585Z,10.85
2022-12-19T05:11:20.415Z,10.80
2022-12-19T05:16:26.719Z,8.68
2022-12-19T05:21:33.003Z,11.43
2022-12-19T05:26:40.731Z,11.00
2022-12-19T05:31:47.143Z,10.70
2022-12-19T05:36:53.562Z,11.00
2022-12-19T05:42:01.541Z,11.20
2022-12-19T05:47:08.465Z,11.25
2022-12-19T05:52:14.787Z,11.23
2022-12-19T05:57:22.502Z,12.32
2022-12-19T06:02:29.358Z,14.77
2022-12-19T06:07:36.687Z,12.15
2022-12-19T06:12:44.902Z,12.98
2022-12-19T06:17:54.669Z,11.70
2022-12-19T06:23:02.570Z,13.27
2022-12-19T06:28:10.399Z,13.40
2022-12-19T06:33:16.722Z,13.87
2022-12-19T06:38:23.230Z,13.30
2022-12-19T06:43:31.353Z,12.43
2022-12-19T06:48:38.146Z,12.25
2022-12-19T06:53:44.414Z,13.55
2022-12-19T06:58:52.288Z,13.93
2022-12-19T07:03:58.761Z,11.70
2022-12-19T07:09:05.833Z,11.85
2022-12-19T07:14:13.773Z,12.25
2022-12-19T07:19:21.043Z,13.32
2022-12-19T07:24:27.576Z,12.88
2022-12-19T07:29:35.528Z,13.25
2022-12-19T07:34:42.156Z,11.30
2022-12-19T07:39:48.489Z,12.70
2022-12-19T07:44:56.493Z,12.65
2022-12-19T07:50:03.740Z,14.65
2022-12-19T07:55:11.630Z,14.05
2022-12-19T08:00:22.034Z,15.23
2022-12-19T08:05:28.561Z,14.95
2022-12-19T08:10:34.960Z,14.05
2022-12-19T08:15:42.745Z,12.75
2022-12-19T08:20:49.840Z,13.47
2022-12-19T08:26:04.239Z,14.48
2022-12-19T08:31:15.412Z,14.60
2022-12-19T08:36:22.322Z,14.77
2022-12-19T08:41:29.155Z,14.55
2022-12-19T08:46:37.788Z,14.23
2022-12-19T08:51:44.271Z,13.25
2022-12-19T08:56:50.709Z,14.52
2022-12-19T09:01:58.987Z,15.80
2022-12-19T09:07:05.542Z,15.40
2022-12-19T09:12:14.063Z,15.05
2022-12-19T09:17:22.317Z,13.63
2022-12-19T09:22:29.502Z,15.18
2022-12-19T09:28:01.315Z,15.77
2022-12-19T09:33:03.825Z,15.05
2022-12-19T09:38:10.205Z,13.80
2022-12-19T09:43:41.108Z,12.45
2022-12-19T09:48:55.573Z,15.43
2022-12-19T09:54:09.092Z,14.63
2022-12-19T09:59:28.715Z,14.10
2022-12-19T10:04:52.180Z,15.40
2022-12-19T10:12:35.301Z,12.85
2022-12-19T10:15:56.128Z,11.50
2022-12-19T10:21:12.970Z,13.90
2022-12-19T10:26:23.473Z,13.85
2022-12-19T10:31:41.357Z,13.75
2022-12-19T10:42:35.172Z,12.52
2022-12-19T10:47:43.829Z,13.18
2022-12-19T10:58:12.732Z,13.82
2022-12-19T11:03:20.364Z,13.98
2022-12-19T11:08:32.476Z,16.00
2022-12-19T11:19:57.672Z,19.63
2022-12-19T11:29:17.340Z,16.48
2022-12-19T11:30:48.175Z,14.03
2022-12-19T11:35:55.921Z,12.38
2022-12-19T11:41:14.994Z,14.05
2022-12-19T11:46:42.414Z,12.65
2022-12-19T11:51:57.885Z,14.27
2022-12-19T11:57:06.030Z,15.57
2022-12-19T12:03:11.245Z,15.52
2022-12-19T12:11:00.339Z,14.30
2022-12-19T12:24:15.894Z,14.70
2022-12-19T12:31:04.395Z,15.00
2022-12-19T12:31:44.254Z,16.15
2022-12-19T12:43:19.182Z,18.67
2022-12-19T12:48:34.843Z,15.75
2022-12-19T12:53:45.894Z,14.43
2022-12-19T12:59:23.328Z,14.75
2022-12-19T13:04:35.492Z,12.48
2022-12-19T13:09:43.047Z,14.80
2022-12-19T13:14:52.402Z,12.35
2022-12-19T13:20:44.336Z,12.48
2022-12-19T13:25:54.995Z,13.43
2022-12-19T13:31:22.946Z,11.55
2022-12-19T13:42:34.333Z,13.85
2022-12-19T13:47:44.630Z,11.50
2022-12-19T13:52:53.759Z,12.93
2022-12-19T13:58:05.616Z,17.15
2022-12-19T14:03:20.490Z,12.25
2022-12-19T14:08:30.036Z,13.18
2022-12-19T14:14:10.239Z,12.15
2022-12-19T14:19:25.449Z,12.50
2022-12-19T14:24:31.956Z,11.20
2022-12-19T14:30:25.948Z,12.82
2022-12-19T14:36:06.874Z,14.70
2022-12-19T14:41:07.405Z,14.55
2022-12-19T14:54:15.970Z,12.15
2022-12-19T14:54:27.384Z,11.02
2022-12-19T14:58:07.890Z,12.05
2022-12-19T15:02:53.819Z,13.10
2022-12-19T15:08:01.837Z,12.48
2022-12-19T15:14:53.739Z,10.83
2022-12-19T15:18:59.466Z,12.30
2022-12-19T15:24:06.282Z,13.20
2022-12-19T15:29:19.825Z,13.82
2022-12-19T15:34:35.811Z,12.30
2022-12-19T15:39:45.243Z,13.27
2022-12-19T15:44:53.748Z,14.27
2022-12-19T15:50:04.230Z,12.65
2022-12-19T15:55:16.422Z,13.75
2022-12-19T16:00:26.533Z,12.55
2022-12-19T16:05:34.731Z,13.52
2022-12-19T16:10:42.257Z,14.30
2022-12-19T16:15:49.976Z,12.68
2022-12-19T16:20:58.971Z,15.73
2022-12-19T16:26:08.083Z,14.63
2022-12-19T16:31:18.305Z,14.18
2022-12-19T16:36:26.895Z,14.60
2022-12-19T16:41:33.899Z,16.00
2022-12-19T16:46:51.299Z,14.40
2022-12-19T16:51:59.826Z,13.93
2022-12-19T16:57:08.139Z,13.93
2022-12-19T17:02:42.969Z,15.18
2022-12-19T17:07:52.396Z,14.15
2022-12-19T17:13:00.785Z,17.08
2022-12-19T17:18:14.267Z,13.85
2022-12-19T17:23:26.766Z,14.73
2022-12-19T17:28:33.433Z,15.18
2022-12-19T17:33:42.123Z,14.48
2022-12-19T17:38:52.140Z,15.18
2022-12-19T17:43:59.000Z,15.27
2022-12-19T17:49:05.525Z,15.57
2022-12-19T17:54:14.760Z,15.50
2022-12-19T17:59:21.453Z,21.77
2022-12-19T18:04:29.753Z,19.48
2022-12-19T18:09:37.936Z,18.88
2022-12-19T18:14:45.018Z,18.65
2022-12-19T18:19:52.828Z,14.57
2022-12-19T18:25:16.976Z,15.68
2022-12-19T18:30:25.998Z,17.20
2022-12-19T18:35:36.557Z,17.70
2022-12-19T18:40:46.943Z,16.88
2022-12-19T18:45:54.712Z,15.75
2022-12-19T18:51:03.309Z,14.35
2022-12-19T19:01:23.735Z,15.27
2022-12-19T19:06:37.783Z,17.40
2022-12-19T19:11:46.812Z,16.02
2022-12-19T19:16:54.348Z,15.98
2022-12-19T19:22:01.160Z,17.50
2022-12-19T19:27:11.112Z,18.63
2022-12-19T19:32:20.617Z,16.48
2022-12-19T19:37:30.479Z,17.23
2022-12-19T19:42:39.065Z,15.73
2022-12-19T19:47:46.179Z,16.58
2022-12-19T19:52:53.034Z,15.88
2022-12-19T19:58:02.796Z,17.52
2022-12-19T20:03:14.080Z,17.42
2022-12-19T20:08:27.075Z,16.02
2022-12-19T20:13:35.679Z,16.08
2022-12-19T20:18:43.391Z,16.42
2022-12-19T20:23:50.390Z,18.63
2022-12-19T20:28:58.744Z,15.82
2022-12-19T20:34:07.339Z,15.65
2022-12-19T20:39:15.600Z,16.23
2022-12-19T20:44:24.835Z,14.82
2022-12-19T20:49:31.896Z,16.35
2022-12-19T20:54:39.211Z,16.15
2022-12-19T20:59:47.268Z,16.40
2022-12-19T21:04:53.716Z,16.53
2022-12-19T21:10:00.201Z,16.35
2022-12-19T21:15:09.556Z,15.55
2022-12-19T21:20:17.185Z,18.52
2022-12-19T21:25:23.967Z,15.95
2022-12-19T21:30:31.983Z,17.00
2022-12-19T21:35:39.535Z,16.08
2022-12-19T21:40:46.099Z,16.10
2022-12-19T21:46:04.806Z,16.10
2022-12-19T21:51:13.526Z,16.83
2022-12-19T21:56:26.886Z,15.75
2022-12-19T22:01:36.176Z,16.45
2022-12-19T22:06:43.463Z,17.42
2022-12-19T22:11:50.623Z,16.88
2022-12-19T22:16:58.873Z,16.38
2022-12-19T22:22:05.790Z,12.90
2022-12-19T22:27:12.415Z,17.80
2022-12-19T22:32:20.274Z,15.00
2022-12-19T22:37:27.176Z,17.65
2022-12-19T22:42:34.221Z,17.35
2022-12-19T22:47:45.099Z,15.38
2022-12-19T22:52:51.465Z,16.60
2022-12-19T22:57:57.833Z,16.67
2022-12-19T23:03:06.494Z,16.02
2022-12-19T23:08:13.350Z,18.65
2022-12-19T23:13:20.153Z,16.40
2022-12-19T23:18:28.352Z,15.95
2022-12-19T23:23:35.034Z,17.02
2022-12-19T23:28:42.223Z,17.77
2022-12-19T23:33:50.539Z,16.60
2022-12-19T23:38:57.801Z,17.05
2022-12-19T23:44:04.609Z,15.07
2022-12-19T23:49:12.270Z,16.77
2022-12-19T23:54:18.837Z,14.65
2022-12-19T23:59:25.517Z,15.73
